Time;durP1;ratioP1;P1;durP2;ratioP2;P2;SDS_P1;SDS_P2;PMS_P1;PMS_P2;Temp;Humidity;BMP_temperature;BMP_pressure;BME280_temperature;BME280_humidity;BME280_pressure;Samples;Min_cycle;Max_cycle;Signal;HPM_P1;HPM_P2
2021/08/28 00:01:49;;;;;;;7.68;4.65;;;;;;;;;;5046728;28;20045;-76
2021/08/28 00:04:34;;;;;;;7.03;4.45;;;;;;;;;;5047512;28;20129;-78
2021/08/28 00:07:19;;;;;;;6.38;4.53;;;;;;;;;;5047908;28;20425;-75
2021/08/28 00:10:04;;;;;;;7.43;4.80;;;;;;;;;;5046645;28;20055;-77
2021/08/28 00:12:49;;;;;;;7.15;4.43;;;;;;;;;;5047864;28;20078;-78
2021/08/28 00:15:34;;;;;;;6.35;4.95;;;;;;;;;;5046361;28;20532;-78
2021/08/28 00:18:18;;;;;;;6.85;4.78;;;;;;;;;;5047596;28;20070;-78
2021/08/28 00:21:03;;;;;;;7.18;4.68;;;;;;;;;;5046269;28;20052;-79
2021/08/28 00:23:47;;;;;;;7.68;5.10;;;;;;;;;;5046794;28;20051;-78
2021/08/28 00:26:32;;;;;;;6.97;4.63;;;;;;;;;;5046603;28;20541;-78
2021/08/28 00:29:16;;;;;;;7.90;4.85;;;;;;;;;;5033219;28;20412;-77
2021/08/28 00:32:01;;;;;;;6.20;4.43;;;;;;;;;;5046840;28;20484;-75
2021/08/28 00:34:46;;;;;;;8.18;4.85;;;;;;;;;;5049912;28;20504;-77
2021/08/28 00:37:31;;;;;;;8.30;4.93;;;;;;;;;;5051040;28;20051;-78
2021/08/28 00:40:15;;;;;;;7.80;5.28;;;;;;;;;;5049423;28;20494;-78
2021/08/28 00:43:00;;;;;;;6.80;4.63;;;;;;;;;;5049729;28;20506;-75
2021/08/28 00:45:44;;;;;;;7.53;4.47;;;;;;;;;;5050499;28;20056;-78
2021/08/28 00:48:29;;;;;;;6.28;4.97;;;;;;;;;;5050474;28;20039;-79
2021/08/28 00:51:13;;;;;;;8.32;4.57;;;;;;;;;;5050284;28;20091;-75
2021/08/28 00:53:58;;;;;;;9.63;4.80;;;;;;;;;;5049357;28;20508;-78
2021/08/28 00:56:42;;;;;;;7.20;4.97;;;;;;;;;;5049551;28;20051;-78
2021/08/28 00:59:27;;;;;;;7.82;4.88;;;;;;;;;;5049174;28;20040;-75
2021/08/28 01:02:11;;;;;;;9.23;4.90;;;;;;;;;;5050255;28;20052;-79
2021/08/28 01:04:58;;;;;;;8.10;4.78;;;;;;;;;;5049180;28;20447;-77
2021/08/28 01:07:57;;;;;;;9.07;5.18;;;;;;;;;;5048912;28;20044;-77
2021/08/28 01:10:47;;;;;;;7.05;4.65;;;;;;;;;;5048839;28;20060;-78
2021/08/28 01:13:32;;;;;;;8.80;5.35;;;;;;;;;;5048994;28;20063;-75
2021/08/28 01:16:17;;;;;;;6.72;4.85;;;;;;;;;;5034905;28;20079;-78
2021/08/28 01:19:02;;;;;;;7.50;4.85;;;;;;;;;;5034859;28;20371;-78
2021/08/28 01:21:47;;;;;;;7.38;4.93;;;;;;;;;;5049920;28;20044;-78
2021/08/28 01:24:31;;;;;;;8.48;5.00;;;;;;;;;;5048639;28;20047;-77
2021/08/28 01:27:19;;;;;;;8.00;4.95;;;;;;;;;;5048754;28;20040;-78
2021/08/28 01:30:04;;;;;;;8.65;5.18;;;;;;;;;;5049816;28;20094;-74
2021/08/28 01:32:49;;;;;;;7.05;4.95;;;;;;;;;;5035122;28;20044;-78
2021/08/28 01:35:34;;;;;;;6.57;4.63;;;;;;;;;;5048465;28;20472;-77
2021/08/28 01:38:19;;;;;;;7.35;5.20;;;;;;;;;;5049010;28;20082;-77
2021/08/28 01:41:03;;;;;;;7.30;4.82;;;;;;;;;;5049275;28;20102;-77
2021/08/28 01:43:48;;;;;;;7.88;5.30;;;;;;;;;;5048614;28;20044;-78
2021/08/28 01:46:32;;;;;;;7.68;4.68;;;;;;;;;;5059730;28;20080;-78
2021/08/28 01:49:17;;;;;;;6.70;4.65;;;;;;;;;;5050464;28;20058;-79
2021/08/28 01:52:01;;;;;;;7.75;5.10;;;;;;;;;;5036570;28;20044;-78
2021/08/28 01:54:46;;;;;;;6.82;5.15;;;;;;;;;;5050396;28;20047;-79
2021/08/28 01:57:30;;;;;;;6.35;4.68;;;;;;;;;;5051451;28;20158;-79
2021/08/28 02:00:15;;;;;;;6.10;4.47;;;;;;;;;;5050198;28;20051;-79
2021/08/28 02:03:00;;;;;;;7.35;5.32;;;;;;;;;;5051338;28;20489;-79
2021/08/28 02:05:46;;;;;;;7.85;4.47;;;;;;;;;;5036132;28;20043;-78
2021/08/28 02:08:42;;;;;;;7.50;5.03;;;;;;;;;;5036052;28;20567;-78
2021/08/28 02:11:32;;;;;;;7.30;4.63;;;;;;;;;;5050161;28;20090;-79
2021/08/28 02:14:21;;;;;;;7.95;4.63;;;;;;;;;;5049999;28;20044;-78
2021/08/28 02:17:07;;;;;;;7.45;4.80;;;;;;;;;;5050394;28;20490;-78
2021/08/28 02:19:52;;;;;;;6.05;4.72;;;;;;;;;;5035937;28;20083;-78
2021/08/28 02:22:40;;;;;;;5.38;4.22;;;;;;;;;;5035872;28;20125;-79
2021/08/28 02:25:54;;;;;;;6.28;4.60;;;;;;;;;;5049807;28;20048;-78
2021/08/28 02:28:49;;;;;;;9.07;4.88;;;;;;;;;;5046999;28;20091;-79
2021/08/28 02:31:37;;;;;;;8.68;4.32;;;;;;;;;;5049483;28;20075;-79
2021/08/28 02:34:22;;;;;;;7.07;4.95;;;;;;;;;;5049630;28;20039;-79
2021/08/28 02:37:06;;;;;;;6.32;4.53;;;;;;;;;;5049533;28;20048;-78
2021/08/28 02:39:51;;;;;;;7.13;4.57;;;;;;;;;;5049484;28;20044;-79
2021/08/28 02:42:35;;;;;;;8.23;4.57;;;;;;;;;;5050540;28;20047;-79
2021/08/28 02:45:20;;;;;;;6.07;4.45;;;;;;;;;;5049582;28;20505;-78
2021/08/28 02:48:05;;;;;;;6.32;4.40;;;;;;;;;;5035411;28;20048;-79
2021/08/28 02:50:50;;;;;;;6.65;4.63;;;;;;;;;;5050282;28;20154;-78
2021/08/28 02:53:35;;;;;;;7.65;4.90;;;;;;;;;;5049371;28;20048;-78
2021/08/28 02:56:21;;;;;;;6.82;4.28;;;;;;;;;;5048331;28;20048;-78
2021/08/28 02:59:05;;;;;;;6.68;4.40;;;;;;;;;;5049128;28;20500;-78
2021/08/28 03:01:50;;;;;;;6.25;4.38;;;;;;;;;;5049169;28;20115;-79
2021/08/28 03:04:35;;;;;;;6.70;4.40;;;;;;;;;;5050163;28;20116;-78
2021/08/28 03:07:20;;;;;;;6.28;4.57;;;;;;;;;;5049027;28;20047;-78
2021/08/28 03:10:05;;;;;;;6.25;4.22;;;;;;;;;;5048896;28;20102;-79
2021/08/28 03:12:49;;;;;;;6.25;4.60;;;;;;;;;;5049055;28;20044;-78
2021/08/28 03:15:34;;;;;;;6.78;4.45;;;;;;;;;;5050107;28;20083;-78
2021/08/28 03:18:19;;;;;;;7.07;4.70;;;;;;;;;;5049505;28;20098;-78
2021/08/28 03:21:04;;;;;;;7.03;4.50;;;;;;;;;;5049947;28;20044;-78
2021/08/28 03:23:50;;;;;;;7.72;4.68;;;;;;;;;;5048859;28;20040;-79
2021/08/28 03:26:34;;;;;;;6.78;4.20;;;;;;;;;;5049912;28;20052;-79
2021/08/28 03:29:20;;;;;;;6.35;3.90;;;;;;;;;;5049721;28;20059;-78
2021/08/28 03:32:04;;;;;;;5.90;4.15;;;;;;;;;;5048649;28;20437;-78
2021/08/28 03:34:49;;;;;;;6.50;4.63;;;;;;;;;;5048577;28;20120;-78
2021/08/28 03:37:34;;;;;;;6.03;4.18;;;;;;;;;;5049680;28;20116;-78
2021/08/28 03:40:18;;;;;;;7.85;4.68;;;;;;;;;;5049078;28;20099;-78
2021/08/28 03:43:03;;;;;;;7.25;4.45;;;;;;;;;;5049599;28;20425;-78
2021/08/28 03:45:50;;;;;;;6.10;4.15;;;;;;;;;;5049581;28;20091;-78
2021/08/28 03:48:35;;;;;;;8.20;4.80;;;;;;;;;;5049429;28;20079;-78
2021/08/28 03:51:20;;;;;;;6.45;4.22;;;;;;;;;;5048369;28;20052;-78
2021/08/28 03:54:04;;;;;;;5.65;4.45;;;;;;;;;;5049383;28;20047;-78
2021/08/28 03:56:49;;;;;;;6.45;3.95;;;;;;;;;;5049413;28;20155;-78
2021/08/28 03:59:34;;;;;;;5.78;4.18;;;;;;;;;;5049336;28;20043;-78
2021/08/28 04:02:18;;;;;;;7.45;4.18;;;;;;;;;;5049298;28;20040;-78
2021/08/28 04:05:03;;;;;;;5.97;4.00;;;;;;;;;;5049214;28;20452;-78
2021/08/28 04:07:48;;;;;;;6.53;4.05;;;;;;;;;;5049000;28;20405;-78
2021/08/28 04:10:32;;;;;;;7.03;3.80;;;;;;;;;;5049086;28;20226;-78
2021/08/28 04:13:17;;;;;;;5.40;3.70;;;;;;;;;;5048066;28;20643;-79
2021/08/28 04:16:05;;;;;;;5.43;4.38;;;;;;;;;;5049640;28;20043;-78
2021/08/28 04:18:49;;;;;;;6.25;4.18;;;;;;;;;;5049190;28;20043;-78
2021/08/28 04:21:34;;;;;;;6.57;3.92;;;;;;;;;;5047988;28;20078;-79
2021/08/28 04:24:19;;;;;;;8.63;4.20;;;;;;;;;;5049138;28;20048;-78
2021/08/28 04:27:03;;;;;;;7.05;3.85;;;;;;;;;;5048001;28;20067;-79
2021/08/28 04:29:48;;;;;;;6.03;4.07;;;;;;;;;;5048862;28;20057;-78
2021/08/28 04:32:33;;;;;;;6.68;3.85;;;;;;;;;;5047941;28;20095;-78
2021/08/28 04:35:17;;;;;;;5.53;4.10;;;;;;;;;;5048937;28;20075;-79
2021/08/28 04:38:02;;;;;;;5.90;3.70;;;;;;;;;;5048889;28;20036;-79
2021/08/28 04:40:46;;;;;;;7.13;4.07;;;;;;;;;;5047884;28;20167;-77
2021/08/28 04:43:31;;;;;;;8.48;4.50;;;;;;;;;;5048871;28;20044;-78
2021/08/28 04:46:15;;;;;;;6.60;3.50;;;;;;;;;;5048772;28;20138;-78
2021/08/28 04:49:00;;;;;;;5.68;3.97;;;;;;;;;;5046998;28;20039;-80
2021/08/28 04:51:44;;;;;;;6.25;4.18;;;;;;;;;;5046310;28;20082;-80
2021/08/28 04:54:29;;;;;;;6.82;3.55;;;;;;;;;;5045153;28;20143;-79
2021/08/28 04:57:14;;;;;;;6.60;4.22;;;;;;;;;;5046244;28;20040;-79
2021/08/28 04:59:59;;;;;;;6.10;3.85;;;;;;;;;;5046101;28;20091;-79
2021/08/28 05:02:43;;;;;;;5.65;3.75;;;;;;;;;;5046217;28;20132;-79
2021/08/28 05:05:28;;;;;;;5.80;3.75;;;;;;;;;;5045970;28;20413;-80
2021/08/28 05:08:13;;;;;;;5.70;3.78;;;;;;;;;;5045102;28;20413;-80
2021/08/28 05:10:58;;;;;;;5.53;3.90;;;;;;;;;;5046062;28;20789;-80
2021/08/28 05:13:43;;;;;;;6.72;3.88;;;;;;;;;;5046187;28;20751;-80
2021/08/28 05:16:27;;;;;;;5.78;3.97;;;;;;;;;;5045005;28;20064;-80
2021/08/28 05:19:12;;;;;;;6.00;3.83;;;;;;;;;;5047389;28;20044;-80
2021/08/28 05:21:56;;;;;;;6.28;4.13;;;;;;;;;;5049691;28;20410;-79
2021/08/28 05:24:41;;;;;;;6.03;3.65;;;;;;;;;;5049570;28;20125;-79
2021/08/28 05:27:25;;;;;;;6.15;4.07;;;;;;;;;;5048658;28;20071;-79
2021/08/28 05:30:10;;;;;;;5.18;3.90;;;;;;;;;;5048941;28;20557;-79
2021/08/28 05:32:55;;;;;;;5.32;3.80;;;;;;;;;;5049417;28;20094;-80
2021/08/28 05:35:39;;;;;;;5.22;3.70;;;;;;;;;;5049098;28;20047;-78
2021/08/28 05:38:24;;;;;;;6.05;4.00;;;;;;;;;;5049442;28;20040;-78
2021/08/28 05:41:08;;;;;;;5.63;3.53;;;;;;;;;;5049179;28;20417;-78
2021/08/28 05:43:53;;;;;;;5.85;3.72;;;;;;;;;;5049155;28;20044;-78
2021/08/28 05:46:38;;;;;;;5.90;3.90;;;;;;;;;;5049165;28;20068;-79
2021/08/28 05:49:22;;;;;;;6.50;3.88;;;;;;;;;;5048669;28;20052;-78
2021/08/28 05:52:07;;;;;;;5.57;3.97;;;;;;;;;;5049004;28;20089;-78
2021/08/28 05:54:51;;;;;;;6.50;4.00;;;;;;;;;;5048857;28;20091;-78
2021/08/28 05:57:38;;;;;;;6.68;4.05;;;;;;;;;;5048609;28;20441;-78
2021/08/28 06:00:22;;;;;;;5.15;4.00;;;;;;;;;;5049002;28;20098;-78
2021/08/28 06:03:07;;;;;;;5.03;3.35;;;;;;;;;;5047950;28;20083;-79
2021/08/28 06:05:51;;;;;;;5.88;3.90;;;;;;;;;;5048576;28;20036;-79
2021/08/28 06:08:36;;;;;;;6.70;3.78;;;;;;;;;;5048607;28;20456;-78
2021/08/28 06:11:24;;;;;;;5.35;3.58;;;;;;;;;;5048820;28;20055;-77
2021/08/28 06:14:09;;;;;;;5.00;3.03;;;;;;;;;;5047956;28;20659;-77
2021/08/28 06:16:54;;;;;;;6.13;3.83;;;;;;;;;;5047618;28;20074;-78
2021/08/28 06:19:39;;;;;;;5.95;3.72;;;;;;;;;;5048915;28;20075;-78
2021/08/28 06:22:24;;;;;;;5.88;3.88;;;;;;;;;;5049785;28;20094;-78
2021/08/28 06:25:09;;;;;;;5.78;4.00;;;;;;;;;;5050287;28;20040;-80
2021/08/28 06:27:54;;;;;;;5.57;3.97;;;;;;;;;;5055311;28;20124;-78
2021/08/28 06:30:39;;;;;;;5.80;3.90;;;;;;;;;;5055709;28;20147;-79
2021/08/28 06:33:23;;;;;;;5.35;3.60;;;;;;;;;;5049737;28;20044;-77
2021/08/28 06:36:08;;;;;;;6.10;3.35;;;;;;;;;;5049072;28;20122;-78
2021/08/28 06:38:52;;;;;;;5.10;3.97;;;;;;;;;;5049312;28;20417;-79
2021/08/28 06:41:37;;;;;;;5.78;3.67;;;;;;;;;;5048675;28;20118;-77
2021/08/28 06:44:23;;;;;;;5.95;4.07;;;;;;;;;;5048245;28;20067;-79
2021/08/28 06:47:08;;;;;;;5.15;3.65;;;;;;;;;;5047352;28;20135;-79
2021/08/28 06:49:53;;;;;;;6.15;3.63;;;;;;;;;;5048076;28;20075;-79
2021/08/28 06:52:37;;;;;;;6.63;3.83;;;;;;;;;;5047915;28;20099;-79
2021/08/28 06:55:22;;;;;;;6.05;3.80;;;;;;;;;;5048017;28;20064;-78
2021/08/28 06:58:06;;;;;;;5.47;3.55;;;;;;;;;;5048128;28;20124;-80
2021/08/28 07:00:51;;;;;;;6.32;3.90;;;;;;;;;;5048321;28;20036;-78
2021/08/28 07:03:35;;;;;;;6.10;3.80;;;;;;;;;;5048385;28;20460;-80
2021/08/28 07:06:20;;;;;;;4.63;3.45;;;;;;;;;;5047973;28;20047;-79
2021/08/28 07:09:04;;;;;;;5.35;4.00;;;;;;;;;;5032820;28;20047;-79
2021/08/28 07:11:49;;;;;;;5.18;3.90;;;;;;;;;;5046986;28;20075;-76
2021/08/28 07:14:34;;;;;;;5.68;3.70;;;;;;;;;;5046950;28;20082;-74
2021/08/28 07:17:18;;;;;;;7.00;3.55;;;;;;;;;;5047877;28;20048;-79
2021/08/28 07:20:03;;;;;;;5.45;3.70;;;;;;;;;;5046836;28;20043;-78
2021/08/28 07:22:48;;;;;;;5.95;3.90;;;;;;;;;;5047906;28;20119;-79
2021/08/28 07:25:39;;;;;;;5.50;3.55;;;;;;;;;;5047121;28;20248;-80
2021/08/28 07:28:24;;;;;;;5.50;3.67;;;;;;;;;;5047040;28;20126;-79
2021/08/28 07:31:09;;;;;;;4.95;3.53;;;;;;;;;;5047799;28;20285;-79
2021/08/28 07:33:53;;;;;;;5.97;3.90;;;;;;;;;;5047289;28;20053;-77
2021/08/28 07:36:38;;;;;;;5.30;3.67;;;;;;;;;;5047456;28;20126;-80
2021/08/28 07:39:22;;;;;;;4.38;3.33;;;;;;;;;;5046410;28;20456;-79
2021/08/28 07:42:06;;;;;;;6.20;3.88;;;;;;;;;;5046934;28;20040;-79
2021/08/28 07:44:51;;;;;;;5.45;3.85;;;;;;;;;;5046367;28;20223;-77
2021/08/28 07:47:36;;;;;;;5.72;3.85;;;;;;;;;;5046042;28;20528;-79
2021/08/28 07:50:20;;;;;;;4.32;3.28;;;;;;;;;;5047120;28;20048;-79
2021/08/28 07:53:13;;;;;;;5.60;3.70;;;;;;;;;;5045476;28;20083;-79
2021/08/28 07:55:58;;;;;;;6.80;3.58;;;;;;;;;;5046052;28;20094;-80
2021/08/28 07:58:43;;;;;;;5.45;3.35;;;;;;;;;;5045984;28;20047;-78
2021/08/28 08:01:27;;;;;;;5.72;3.50;;;;;;;;;;5047298;28;20473;-79
2021/08/28 08:04:11;;;;;;;5.38;3.35;;;;;;;;;;5046044;28;20044;-79
2021/08/28 08:06:56;;;;;;;4.43;3.40;;;;;;;;;;5031582;28;20052;-80
2021/08/28 08:09:40;;;;;;;5.07;3.28;;;;;;;;;;5046833;28;20063;-79
2021/08/28 08:12:25;;;;;;;5.57;3.58;;;;;;;;;;5047290;28;20044;-79
2021/08/28 08:15:10;;;;;;;5.40;3.33;;;;;;;;;;5046923;28;20124;-79
2021/08/28 08:17:55;;;;;;;6.50;4.20;;;;;;;;;;5046974;28;20040;-79
2021/08/28 08:20:40;;;;;;;5.93;3.72;;;;;;;;;;5031709;28;20146;-79
2021/08/28 08:23:24;;;;;;;5.68;3.40;;;;;;;;;;5045818;28;20040;-78
2021/08/28 08:26:09;;;;;;;5.32;3.10;;;;;;;;;;5047047;28;20048;-78
2021/08/28 08:28:54;;;;;;;6.03;3.35;;;;;;;;;;5046934;28;21040;-79
2021/08/28 08:31:39;;;;;;;5.10;3.33;;;;;;;;;;5046671;28;20516;-79
2021/08/28 08:34:23;;;;;;;5.88;3.88;;;;;;;;;;5046049;28;20075;-76
2021/08/28 08:37:11;;;;;;;5.00;3.63;;;;;;;;;;5031789;28;20084;-79
2021/08/28 08:39:55;;;;;;;4.65;3.30;;;;;;;;;;5045591;28;20118;-78
2021/08/28 08:42:40;;;;;;;5.75;3.38;;;;;;;;;;5031759;28;20067;-78
2021/08/28 08:45:25;;;;;;;5.32;3.50;;;;;;;;;;5045501;28;20110;-79
2021/08/28 08:48:09;;;;;;;4.82;3.67;;;;;;;;;;5031594;28;20075;-78
2021/08/28 08:50:53;;;;;;;5.60;3.30;;;;;;;;;;5031463;28;20051;-79
2021/08/28 08:53:38;;;;;;;4.25;3.33;;;;;;;;;;5045998;28;20580;-78
2021/08/28 08:56:22;;;;;;;5.10;3.33;;;;;;;;;;5049710;28;20048;-79
2021/08/28 08:59:07;;;;;;;4.80;3.13;;;;;;;;;;5035072;28;20121;-78
2021/08/28 09:01:51;;;;;;;4.88;3.25;;;;;;;;;;5035365;28;20039;-78
2021/08/28 09:04:36;;;;;;;5.28;3.40;;;;;;;;;;5050418;28;20071;-79
2021/08/28 09:07:21;;;;;;;5.03;3.30;;;;;;;;;;5049918;28;20094;-76
2021/08/28 09:10:06;;;;;;;4.65;3.35;;;;;;;;;;5049880;28;20060;-77
2021/08/28 09:12:51;;;;;;;4.30;3.20;;;;;;;;;;5049990;28;20090;-79
2021/08/28 09:15:42;;;;;;;3.72;3.05;;;;;;;;;;5048787;28;20090;-78
2021/08/28 09:18:26;;;;;;;4.18;3.30;;;;;;;;;;5048804;28;20071;-78
2021/08/28 09:21:11;;;;;;;5.18;3.20;;;;;;;;;;5050107;28;20091;-79
2021/08/28 09:24:00;;;;;;;4.40;3.05;;;;;;;;;;5034695;28;20087;-76
2021/08/28 09:26:45;;;;;;;4.88;3.20;;;;;;;;;;5034958;28;20044;-79
2021/08/28 09:29:30;;;;;;;4.05;3.00;;;;;;;;;;5049767;28;20083;-79
2021/08/28 09:32:14;;;;;;;3.90;2.83;;;;;;;;;;5048590;28;20063;-78
2021/08/28 09:35:08;;;;;;;5.28;3.10;;;;;;;;;;5048548;28;20044;-79
2021/08/28 09:38:00;;;;;;;4.75;3.33;;;;;;;;;;5049698;28;20568;-79
2021/08/28 09:40:45;;;;;;;;;;;;;;;;;;5049050;28;20051;-79
2021/08/28 09:43:29;;;;;;;3.38;2.97;;;;;;;;;;5049641;28;19966;-80
2021/08/28 09:46:14;;;;;;;4.05;2.88;;;;;;;;;;5050967;28;20075;-79
2021/08/28 09:49:00;;;;;;;4.72;2.85;;;;;;;;;;5053174;28;20103;-80
2021/08/28 09:51:44;;;;;;;3.80;2.90;;;;;;;;;;5053593;28;20086;-80
2021/08/28 09:54:29;;;;;;;4.68;3.10;;;;;;;;;;5055610;28;20390;-80
2021/08/28 09:57:14;;;;;;;3.95;2.95;;;;;;;;;;5053654;28;20048;-80
2021/08/28 09:59:59;;;;;;;4.22;2.97;;;;;;;;;;5049568;28;20136;-79
2021/08/28 10:02:57;;;;;;;3.88;2.90;;;;;;;;;;5050413;28;20381;-80
2021/08/28 10:05:43;;;;;;;4.35;3.17;;;;;;;;;;5047799;28;20572;-79
2021/08/28 10:08:28;;;;;;;3.40;2.72;;;;;;;;;;5048088;28;20044;-79
2021/08/28 10:11:12;;;;;;;4.00;3.00;;;;;;;;;;5048338;28;20052;-79
2021/08/28 10:13:57;;;;;;;3.85;2.90;;;;;;;;;;5047952;28;20040;-79
2021/08/28 10:16:42;;;;;;;3.92;2.85;;;;;;;;;;5049042;28;20063;-78
2021/08/28 10:19:27;;;;;;;3.40;2.80;;;;;;;;;;5047821;28;20058;-80
2021/08/28 10:22:13;;;;;;;3.70;3.25;;;;;;;;;;5047769;28;20043;-78
2021/08/28 10:24:58;;;;;;;3.63;3.03;;;;;;;;;;5033760;28;20045;-79
2021/08/28 10:27:43;;;;;;;3.80;3.00;;;;;;;;;;5048094;28;20039;-79
2021/08/28 10:30:28;;;;;;;3.80;2.90;;;;;;;;;;5048605;28;20106;-78
2021/08/28 10:33:13;;;;;;;3.92;2.83;;;;;;;;;;5047596;28;20036;-78
2021/08/28 10:35:57;;;;;;;3.85;3.10;;;;;;;;;;5047641;28;20044;-76
2021/08/28 10:38:42;;;;;;;4.05;3.13;;;;;;;;;;5048536;28;20119;-79
2021/08/28 10:41:26;;;;;;;3.67;2.95;;;;;;;;;;5047443;28;20040;-77
2021/08/28 10:44:11;;;;;;;4.43;3.10;;;;;;;;;;5048417;28;20052;-77
2021/08/28 10:46:55;;;;;;;4.07;2.88;;;;;;;;;;5047402;28;20068;-79
2021/08/28 10:49:44;;;;;;;3.42;2.75;;;;;;;;;;5047236;28;20087;-79
2021/08/28 10:52:29;;;;;;;4.47;3.17;;;;;;;;;;5047292;28;20553;-79
2021/08/28 10:55:14;;;;;;;3.55;2.72;;;;;;;;;;5047216;28;20099;-79
2021/08/28 10:58:18;;;;;;;3.35;2.83;;;;;;;;;;5033163;28;20137;-79
2021/08/28 11:01:02;;;;;;;3.90;2.65;;;;;;;;;;5047012;28;20508;-78
2021/08/28 11:03:47;;;;;;;3.30;2.80;;;;;;;;;;5046977;28;20115;-79
2021/08/28 11:06:32;;;;;;;3.97;3.03;;;;;;;;;;5032984;28;20071;-79
2021/08/28 11:09:17;;;;;;;4.00;2.97;;;;;;;;;;5046896;28;20048;-77
2021/08/28 11:12:01;;;;;;;3.40;2.60;;;;;;;;;;5032868;28;20087;-78
2021/08/28 11:14:45;;;;;;;3.10;2.42;;;;;;;;;;5046926;28;20419;-79
2021/08/28 11:17:37;;;;;;;4.43;3.08;;;;;;;;;;5047677;28;20452;-78
2021/08/28 11:20:28;;;;;;;4.00;2.92;;;;;;;;;;5047710;28;20047;-79
2021/08/28 11:23:14;;;;;;;3.15;2.60;;;;;;;;;;5046592;28;20083;-79
2021/08/28 11:25:59;;;;;;;4.00;2.88;;;;;;;;;;5032680;28;20468;-76
2021/08/28 11:28:43;;;;;;;3.70;2.75;;;;;;;;;;5032675;28;20083;-78
2021/08/28 11:31:41;;;;;;;4.07;2.97;;;;;;;;;;5047729;28;20187;-79
2021/08/28 11:34:28;;;;;;;3.85;2.92;;;;;;;;;;5032769;28;20048;-79
2021/08/28 11:37:31;;;;;;;4.07;2.75;;;;;;;;;;5047532;28;20047;-78
2021/08/28 11:40:23;;;;;;;3.90;2.88;;;;;;;;;;5047628;28;20047;-78
2021/08/28 11:43:11;;;;;;;3.72;3.00;;;;;;;;;;5047489;28;20647;-78
2021/08/28 11:45:56;;;;;;;3.40;2.67;;;;;;;;;;5046462;28;20077;-78
2021/08/28 11:48:43;;;;;;;4.03;2.80;;;;;;;;;;5046616;28;20043;-78
2021/08/28 11:51:28;;;;;;;3.72;2.88;;;;;;;;;;5046344;28;20070;-78
2021/08/28 11:54:13;;;;;;;3.90;2.88;;;;;;;;;;5046137;28;20071;-78
2021/08/28 11:56:57;;;;;;;4.00;3.20;;;;;;;;;;5047324;28;20106;-78
2021/08/28 11:59:43;;;;;;;3.90;2.58;;;;;;;;;;5032085;28;20489;-78
2021/08/28 12:02:27;;;;;;;3.78;2.63;;;;;;;;;;5046233;28;20182;-78
2021/08/28 12:05:13;;;;;;;3.42;2.53;;;;;;;;;;5046041;28;20059;-78
2021/08/28 12:07:58;;;;;;;3.38;2.78;;;;;;;;;;5046134;28;20406;-78
2021/08/28 12:10:43;;;;;;;4.50;2.67;;;;;;;;;;5046037;28;20091;-77
2021/08/28 12:13:28;;;;;;;3.60;2.85;;;;;;;;;;5032331;28;20075;-78
2021/08/28 12:16:18;;;;;;;3.90;3.20;;;;;;;;;;5047167;28;20409;-78
2021/08/28 12:19:03;;;;;;;3.83;3.03;;;;;;;;;;5047090;28;20043;-76
2021/08/28 12:21:49;;;;;;;3.83;2.92;;;;;;;;;;5047061;28;20052;-78
2021/08/28 12:24:36;;;;;;;4.40;2.88;;;;;;;;;;5032237;28;20125;-78
2021/08/28 12:27:21;;;;;;;3.20;2.72;;;;;;;;;;5046040;28;20075;-78
2021/08/28 12:30:06;;;;;;;3.80;2.90;;;;;;;;;;5050177;28;20613;-78
2021/08/28 12:32:51;;;;;;;3.38;2.65;;;;;;;;;;5051145;28;20039;-77
2021/08/28 12:35:36;;;;;;;3.08;2.63;;;;;;;;;;5049837;28;20063;-78
2021/08/28 12:38:20;;;;;;;3.53;2.55;;;;;;;;;;5050025;28;20075;-78
2021/08/28 12:41:05;;;;;;;3.67;2.88;;;;;;;;;;5050992;28;20186;-78
2021/08/28 12:43:49;;;;;;;2.90;2.53;;;;;;;;;;5049904;28;20489;-78
2021/08/28 12:46:34;;;;;;;4.82;2.70;;;;;;;;;;5050020;28;20149;-78
2021/08/28 12:49:22;;;;;;;3.40;2.80;;;;;;;;;;5049690;28;20048;-77
2021/08/28 12:52:08;;;;;;;4.43;2.80;;;;;;;;;;5050724;28;20095;-77
2021/08/28 12:54:55;;;;;;;3.53;2.70;;;;;;;;;;5049577;28;20116;-76
2021/08/28 12:57:40;;;;;;;3.05;2.75;;;;;;;;;;5049818;28;20094;-77
2021/08/28 13:00:25;;;;;;;3.70;2.83;;;;;;;;;;5049554;28;20036;-78
2021/08/28 13:03:28;;;;;;;3.58;2.85;;;;;;;;;;5036025;28;20413;-77
2021/08/28 13:06:23;;;;;;;3.40;2.70;;;;;;;;;;5049655;28;20088;-77
2021/08/28 13:09:15;;;;;;;3.95;3.03;;;;;;;;;;5063541;28;20098;-78
2021/08/28 13:11:59;;;;;;;4.40;3.13;;;;;;;;;;5061789;28;20445;-77
2021/08/28 13:14:54;;;;;;;4.57;3.05;;;;;;;;;;5053315;28;20040;-76
2021/08/28 13:17:39;;;;;;;3.75;2.80;;;;;;;;;;5052046;28;20433;-77
2021/08/28 13:20:28;;;;;;;3.38;2.70;;;;;;;;;;5036205;28;20055;-78
2021/08/28 13:23:13;;;;;;;3.80;2.83;;;;;;;;;;5036115;28;20094;-78
2021/08/28 13:25:59;;;;;;;3.47;2.80;;;;;;;;;;5051326;28;20115;-78
2021/08/28 13:28:47;;;;;;;3.30;2.72;;;;;;;;;;5050899;28;20071;-77
2021/08/28 13:31:32;;;;;;;3.67;2.97;;;;;;;;;;5049134;28;20056;-78
2021/08/28 13:34:16;;;;;;;3.28;2.65;;;;;;;;;;5049017;28;20059;-78
2021/08/28 13:37:00;;;;;;;3.80;2.85;;;;;;;;;;5050171;28;20262;-78
2021/08/28 13:39:45;;;;;;;3.53;2.78;;;;;;;;;;5047936;28;20040;-78
2021/08/28 13:42:30;;;;;;;3.00;2.65;;;;;;;;;;5050288;28;20040;-78
2021/08/28 13:45:15;;;;;;;3.80;2.90;;;;;;;;;;5050006;28;20052;-78
2021/08/28 13:48:00;;;;;;;3.25;2.67;;;;;;;;;;5048810;28;20044;-77
2021/08/28 13:50:44;;;;;;;3.30;2.90;;;;;;;;;;5048988;28;20052;-77
2021/08/28 13:53:29;;;;;;;4.03;2.90;;;;;;;;;;5049882;28;20044;-77
2021/08/28 13:56:13;;;;;;;3.45;2.90;;;;;;;;;;5050068;28;20048;-78
2021/08/28 13:58:58;;;;;;;3.60;2.90;;;;;;;;;;5049526;28;20043;-78
2021/08/28 14:01:42;;;;;;;3.67;3.08;;;;;;;;;;5050015;28;20039;-78
2021/08/28 14:04:27;;;;;;;3.75;3.08;;;;;;;;;;5034313;28;20068;-78
2021/08/28 14:07:12;;;;;;;3.92;3.03;;;;;;;;;;5049822;28;20102;-77
2021/08/28 14:09:58;;;;;;;3.10;2.75;;;;;;;;;;5049342;28;20052;-78
2021/08/28 14:12:43;;;;;;;4.07;3.10;;;;;;;;;;5049537;28;20039;-78
2021/08/28 14:15:27;;;;;;;3.55;2.80;;;;;;;;;;5048101;28;20433;-78
2021/08/28 14:18:12;;;;;;;3.67;2.90;;;;;;;;;;5050013;28;20051;-78
2021/08/28 14:20:56;;;;;;;3.17;2.70;;;;;;;;;;5048257;28;20043;-78
2021/08/28 14:23:41;;;;;;;4.53;3.22;;;;;;;;;;5048129;28;20090;-78
2021/08/28 14:26:25;;;;;;;3.67;3.05;;;;;;;;;;5048097;28;20460;-77
2021/08/28 14:29:10;;;;;;;3.72;3.22;;;;;;;;;;5047996;28;20083;-77
2021/08/28 14:31:55;;;;;;;3.92;3.22;;;;;;;;;;5049658;28;20051;-78
2021/08/28 14:34:39;;;;;;;4.00;2.97;;;;;;;;;;5048399;28;20430;-77
2021/08/28 14:37:24;;;;;;;3.33;2.75;;;;;;;;;;5049504;28;20583;-78
2021/08/28 14:40:10;;;;;;;3.85;3.00;;;;;;;;;;5049416;28;20093;-78
2021/08/28 14:42:54;;;;;;;4.07;2.92;;;;;;;;;;5048360;28;20056;-77
2021/08/28 14:45:39;;;;;;;4.05;3.13;;;;;;;;;;5049389;28;20044;-77
2021/08/28 14:48:24;;;;;;;4.68;3.17;;;;;;;;;;5048773;28;20099;-77
2021/08/28 14:51:08;;;;;;;2.90;2.60;;;;;;;;;;5049077;28;20198;-78
2021/08/28 14:53:53;;;;;;;3.97;2.70;;;;;;;;;;5049223;28;20497;-78
2021/08/28 14:56:39;;;;;;;3.60;3.03;;;;;;;;;;5049993;28;20136;-77
2021/08/28 14:59:24;;;;;;;3.83;3.10;;;;;;;;;;5047549;28;20536;-77
2021/08/28 15:02:09;;;;;;;3.55;2.95;;;;;;;;;;5048408;28;20063;-78
2021/08/28 15:04:53;;;;;;;3.55;3.10;;;;;;;;;;5048553;28;20044;-78
2021/08/28 15:07:38;;;;;;;3.30;2.95;;;;;;;;;;5048096;28;20044;-75
2021/08/28 15:10:22;;;;;;;3.45;2.90;;;;;;;;;;5047026;28;20461;-76
2021/08/28 15:13:07;;;;;;;3.70;3.15;;;;;;;;;;5047226;28;20087;-77
2021/08/28 15:15:52;;;;;;;3.42;3.13;;;;;;;;;;5047211;28;20397;-76
2021/08/28 15:18:36;;;;;;;3.63;3.00;;;;;;;;;;5046526;28;20528;-77
2021/08/28 15:21:22;;;;;;;3.95;3.00;;;;;;;;;;5047754;28;20639;-77
2021/08/28 15:24:06;;;;;;;3.35;2.92;;;;;;;;;;5047781;28;20116;-76
2021/08/28 15:26:51;;;;;;;3.80;2.90;;;;;;;;;;5047852;28;20048;-76
2021/08/28 15:29:35;;;;;;;3.65;2.72;;;;;;;;;;5047848;28;20084;-76
2021/08/28 15:32:20;;;;;;;3.70;3.00;;;;;;;;;;5046757;28;20050;-77
2021/08/28 15:35:05;;;;;;;3.67;3.13;;;;;;;;;;5032542;28;20167;-77
2021/08/28 15:37:50;;;;;;;4.00;3.20;;;;;;;;;;5047711;28;20455;-77
2021/08/28 15:40:35;;;;;;;3.60;3.00;;;;;;;;;;5032674;28;20067;-76
2021/08/28 15:43:20;;;;;;;4.00;3.03;;;;;;;;;;5047542;28;20095;-77
2021/08/28 15:46:05;;;;;;;3.85;2.92;;;;;;;;;;5032183;28;20039;-78
2021/08/28 15:48:50;;;;;;;4.18;2.72;;;;;;;;;;5046571;28;20048;-77
2021/08/28 15:51:34;;;;;;;4.05;3.00;;;;;;;;;;5046405;28;20519;-77
2021/08/28 15:54:19;;;;;;;3.25;2.85;;;;;;;;;;5047572;28;20040;-77
2021/08/28 15:57:04;;;;;;;3.63;3.00;;;;;;;;;;5046337;28;20063;-77
2021/08/28 15:59:49;;;;;;;3.72;3.10;;;;;;;;;;5047259;28;20047;-77
2021/08/28 16:02:34;;;;;;;4.03;3.00;;;;;;;;;;5047035;28;20043;-77
2021/08/28 16:05:18;;;;;;;3.40;2.80;;;;;;;;;;5047381;28;20502;-77
2021/08/28 16:08:03;;;;;;;3.55;2.70;;;;;;;;;;5047348;28;20051;-77
2021/08/28 16:10:48;;;;;;;3.42;2.75;;;;;;;;;;5045925;28;20071;-77
2021/08/28 16:13:32;;;;;;;3.30;2.90;;;;;;;;;;5046199;28;20766;-75
2021/08/28 16:16:17;;;;;;;3.88;2.78;;;;;;;;;;5047403;28;20114;-77
2021/08/28 16:19:01;;;;;;;3.63;2.90;;;;;;;;;;5046315;28;20071;-77
2021/08/28 16:21:45;;;;;;;4.18;3.00;;;;;;;;;;5047443;28;20040;-78
2021/08/28 16:24:30;;;;;;;3.45;3.03;;;;;;;;;;5049025;28;20044;-77
2021/08/28 16:27:15;;;;;;;3.47;3.03;;;;;;;;;;5054049;28;20052;-75
2021/08/28 16:29:59;;;;;;;3.47;2.90;;;;;;;;;;5066196;28;20121;-77
2021/08/28 16:32:44;;;;;;;3.40;2.75;;;;;;;;;;5055504;28;20098;-79